createdAt,value
2022-10-03T00:01:53.909Z,13.88
2022-10-03T00:04:38.483Z,13.92
2022-10-03T00:07:19.742Z,14.00
2022-10-03T00:10:02.868Z,14.01
2022-10-03T00:12:47.274Z,13.90
2022-10-03T00:15:21.994Z,13.81
2022-10-03T00:18:02.166Z,13.70
2022-10-03T00:20:50.250Z,13.82
2022-10-03T00:23:25.455Z,13.86
2022-10-03T00:26:26.303Z,13.81
2022-10-03T00:29:11.838Z,13.72
2022-10-03T00:31:48.804Z,13.76
2022-10-03T00:34:27.176Z,13.70
2022-10-03T00:37:22.531Z,13.77
2022-10-03T00:40:31.133Z,13.77
2022-10-03T00:43:28.694Z,13.74
2022-10-03T00:46:22.422Z,13.61
2022-10-03T00:49:24.903Z,13.52
2022-10-03T00:52:07.112Z,13.52
2022-10-03T00:55:01.577Z,13.60
2022-10-03T00:57:57.634Z,13.62
2022-10-03T01:00:29.207Z,13.57
2022-10-03T01:03:17.776Z,13.58
2022-10-03T01:05:54.014Z,13.57
2022-10-03T01:08:41.832Z,13.66
2022-10-03T01:11:22.522Z,13.71
2022-10-03T01:14:05.928Z,13.73
2022-10-03T01:16:44.850Z,13.66
2022-10-03T01:19:32.912Z,13.52
2022-10-03T01:22:17.210Z,13.51
2022-10-03T01:24:53.566Z,13.48
2022-10-03T01:27:33.151Z,13.49
2022-10-03T01:30:22.989Z,13.46
2022-10-03T01:32:57.445Z,13.53
2022-10-03T01:35:37.520Z,13.54
2022-10-03T01:38:15.565Z,13.52
2022-10-03T01:40:51.515Z,13.56
2022-10-03T01:43:22.320Z,13.51
2022-10-03T01:46:02.020Z,13.50
2022-10-03T01:48:41.218Z,13.52
2022-10-03T01:51:12.906Z,13.45
2022-10-03T01:53:51.315Z,13.43
2022-10-03T01:56:26.798Z,13.41
2022-10-03T01:59:01.480Z,13.41
2022-10-03T02:01:44.763Z,13.34
2022-10-03T02:04:21.720Z,13.31
2022-10-03T02:06:59.561Z,13.31
2022-10-03T02:09:36.455Z,13.38
2022-10-03T02:12:10.181Z,13.37
2022-10-03T02:14:54.616Z,13.40
2022-10-03T02:17:30.504Z,13.44
2022-10-03T02:20:07.931Z,13.46
2022-10-03T02:22:42.575Z,13.41
2022-10-03T02:25:22.864Z,13.31
2022-10-03T02:28:21.649Z,13.22
2022-10-03T02:31:33.393Z,13.26
2022-10-03T02:34:25.514Z,13.29
2022-10-03T02:37:38.287Z,13.34
2022-10-03T02:40:37.122Z,13.29
2022-10-03T02:43:26.379Z,13.24
2022-10-03T02:46:41.129Z,13.23
2022-10-03T02:49:44.718Z,13.10
2022-10-03T02:52:26.659Z,13.09
2022-10-03T02:55:16.898Z,13.09
2022-10-03T02:58:17.286Z,13.04
2022-10-03T03:01:20.784Z,13.03
2022-10-03T03:04:11.866Z,13.03
2022-10-03T03:06:58.608Z,13.07
2022-10-03T03:10:01.578Z,13.01
2022-10-03T03:12:56.626Z,12.98
2022-10-03T03:16:11.502Z,12.98
2022-10-03T03:18:45.338Z,12.99
2022-10-03T03:21:22.185Z,12.88
2022-10-03T03:24:15.666Z,12.92
2022-10-03T03:27:05.949Z,12.97
2022-10-03T03:29:43.361Z,12.93
2022-10-03T03:32:24.348Z,12.93
2022-10-03T03:34:59.918Z,12.90
2022-10-03T03:37:35.808Z,12.81
2022-10-03T03:40:32.345Z,12.82
2022-10-03T03:43:16.302Z,12.82
2022-10-03T03:45:54.355Z,12.86
2022-10-03T03:48:44.128Z,12.89
2022-10-03T03:51:23.054Z,12.80
2022-10-03T03:54:27.672Z,12.79
2022-10-03T03:57:16.047Z,12.67
2022-10-03T04:00:02.666Z,12.65
2022-10-03T04:02:45.037Z,12.70
2022-10-03T04:05:26.086Z,12.78
2022-10-03T04:08:12.384Z,12.79
2022-10-03T04:10:53.288Z,12.76
2022-10-03T04:13:33.308Z,12.65
2022-10-03T04:16:42.028Z,12.74
2022-10-03T04:19:17.716Z,12.87
2022-10-03T04:22:06.187Z,12.84
2022-10-03T04:24:56.665Z,12.78
2022-10-03T04:27:38.395Z,12.80
2022-10-03T04:30:14.792Z,12.67
2022-10-03T04:32:56.585Z,12.58
2022-10-03T04:35:37.492Z,12.54
2022-10-03T04:38:14.167Z,12.53
2022-10-03T04:40:51.540Z,12.56
2022-10-03T04:43:34.680Z,12.58
2022-10-03T04:46:17.609Z,12.53
2022-10-03T04:48:54.185Z,12.52
2022-10-03T04:51:41.886Z,12.47
2022-10-03T04:54:21.368Z,12.49
2022-10-03T04:56:57.078Z,12.38
2022-10-03T04:59:36.041Z,12.36
2022-10-03T05:02:12.744Z,12.46
2022-10-03T05:04:47.079Z,12.38
2022-10-03T05:07:21.668Z,12.30
2022-10-03T05:09:55.599Z,12.22
2022-10-03T05:12:35.381Z,12.24
2022-10-03T05:15:18.304Z,12.20
2022-10-03T05:17:53.112Z,12.10
2022-10-03T05:20:36.326Z,12.10
2022-10-03T05:23:17.764Z,12.10
2022-10-03T05:26:16.299Z,12.06
2022-10-03T05:28:51.855Z,12.16
2022-10-03T05:31:33.694Z,12.18
2022-10-03T05:34:17.615Z,12.18
2022-10-03T05:37:09.325Z,12.22
2022-10-03T05:39:47.014Z,12.26
2022-10-03T05:42:36.049Z,12.27
2022-10-03T05:45:07.632Z,12.23
2022-10-03T05:47:49.855Z,12.16
2022-10-03T05:50:42.971Z,12.07
2022-10-03T05:53:53.565Z,12.11
2022-10-03T05:56:41.112Z,12.19
2022-10-03T05:59:33.560Z,12.24
2022-10-03T06:02:36.456Z,12.26
2022-10-03T06:05:16.407Z,12.29
2022-10-03T06:08:06.461Z,12.32
2022-10-03T06:10:44.917Z,12.24
2022-10-03T06:13:20.489Z,12.24
2022-10-03T06:16:00.642Z,12.28
2022-10-03T06:19:06.641Z,12.34
2022-10-03T06:22:07.603Z,12.25
2022-10-03T06:25:07.875Z,12.40
2022-10-03T06:28:11.382Z,12.50
2022-10-03T06:31:02.678Z,12.36
2022-10-03T06:34:13.277Z,12.43
2022-10-03T06:37:01.128Z,12.39
2022-10-03T06:40:10.202Z,12.40
2022-10-03T06:43:13.618Z,12.42
2022-10-03T06:46:04.382Z,12.49
2022-10-03T06:49:03.394Z,12.49
2022-10-03T06:51:54.297Z,12.58
2022-10-03T06:55:04.388Z,12.66
2022-10-03T06:58:02.348Z,12.71
2022-10-03T07:00:49.328Z,12.86
2022-10-03T07:03:49.272Z,12.87
2022-10-03T07:06:31.845Z,12.98
2022-10-03T07:09:32.976Z,13.08
2022-10-03T07:12:33.621Z,13.19
2022-10-03T07:15:57.782Z,13.27
2022-10-03T07:18:53.930Z,13.36
2022-10-03T07:21:53.097Z,13.46
2022-10-03T07:24:41.477Z,13.52
2022-10-03T07:27:33.400Z,13.49
2022-10-03T07:30:14.471Z,13.56
2022-10-03T07:33:27.570Z,13.60
2022-10-03T07:36:49.139Z,13.64
2022-10-03T07:39:42.202Z,13.71
2022-10-03T07:42:52.658Z,13.78
2022-10-03T07:45:38.001Z,13.80
2022-10-03T07:48:53.164Z,13.86
2022-10-03T07:51:30.302Z,13.91
2022-10-03T07:54:30.687Z,14.01
2022-10-03T07:57:13.072Z,14.08
2022-10-03T08:00:05.617Z,14.17
2022-10-03T08:03:06.053Z,14.28
2022-10-03T08:05:50.565Z,14.50
2022-10-03T08:08:43.140Z,14.78
2022-10-03T08:11:37.759Z,14.93
2022-10-03T08:14:20.236Z,15.14
2022-10-03T08:17:23.399Z,15.17
2022-10-03T08:20:13.023Z,15.09
2022-10-03T08:22:56.944Z,15.00
2022-10-03T08:25:46.404Z,15.11
2022-10-03T08:28:43.083Z,15.20
2022-10-03T08:31:46.600Z,15.14
2022-10-03T08:34:59.653Z,15.39
2022-10-03T08:37:55.611Z,15.56
2022-10-03T08:40:57.758Z,15.85
2022-10-03T08:43:54.573Z,15.83
2022-10-03T08:46:47.158Z,16.07
2022-10-03T08:49:37.855Z,17.63
2022-10-03T08:52:21.324Z,20.89
2022-10-03T08:55:31.115Z,23.92
2022-10-03T08:58:21.735Z,26.17
2022-10-03T09:01:19.803Z,26.51
2022-10-03T09:04:24.419Z,26.66
2022-10-03T09:07:17.184Z,26.40
2022-10-03T09:10:16.370Z,25.86
2022-10-03T09:13:07.428Z,24.90
2022-10-03T09:16:08.163Z,23.70
2022-10-03T09:18:56.865Z,23.00
2022-10-03T09:21:51.423Z,23.55
2022-10-03T09:24:51.325Z,23.57
2022-10-03T09:27:44.413Z,22.01
2022-10-03T09:30:23.982Z,20.67
2022-10-03T09:33:45.218Z,20.36
2022-10-03T09:36:37.232Z,19.68
2022-10-03T09:39:26.390Z,18.89
2022-10-03T09:42:26.820Z,18.09
2022-10-03T09:45:35.001Z,19.95
2022-10-03T09:48:17.638Z,20.49
2022-10-03T09:51:15.347Z,19.96
2022-10-03T09:54:12.513Z,19.35
2022-10-03T09:57:04.182Z,18.99
2022-10-03T09:59:46.397Z,18.55
2022-10-03T10:02:41.666Z,18.12
2022-10-03T10:05:47.576Z,17.74
2022-10-03T10:08:48.584Z,17.37
2022-10-03T10:11:42.228Z,17.17
2022-10-03T10:14:25.729Z,17.03
2022-10-03T10:17:38.870Z,17.15
2022-10-03T10:20:23.774Z,17.81
2022-10-03T10:23:34.364Z,18.59
2022-10-03T10:26:46.821Z,19.32
2022-10-03T10:29:40.895Z,18.92
2022-10-03T10:32:54.413Z,18.78
2022-10-03T10:36:02.310Z,18.58
2022-10-03T10:39:02.759Z,18.18
2022-10-03T10:42:03.610Z,17.80
2022-10-03T10:45:03.597Z,17.50
2022-10-03T10:48:16.835Z,17.24
2022-10-03T10:51:23.303Z,17.10
2022-10-03T10:54:48.985Z,17.13
2022-10-03T10:57:26.746Z,17.24
2022-10-03T11:00:29.185Z,17.22
2022-10-03T11:03:30.271Z,17.16
2022-10-03T11:06:32.474Z,17.07
2022-10-03T11:09:38.196Z,17.03
2022-10-03T11:12:45.666Z,17.21
2022-10-03T11:15:43.393Z,17.23
2022-10-03T11:18:45.868Z,17.18
2022-10-03T11:22:00.598Z,17.08
2022-10-03T11:24:56.647Z,16.93
2022-10-03T11:27:59.398Z,16.84
2022-10-03T11:31:14.822Z,16.76
2022-10-03T11:34:23.702Z,16.71
2022-10-03T11:37:07.672Z,16.73
2022-10-03T11:39:48.156Z,16.78
2022-10-03T11:42:32.791Z,16.85
2022-10-03T11:45:03.517Z,16.94
2022-10-03T11:47:52.680Z,17.03
2022-10-03T11:50:36.401Z,17.10
2022-10-03T11:53:15.872Z,17.23
2022-10-03T11:55:48.443Z,17.36
2022-10-03T11:58:33.952Z,17.53
2022-10-03T12:01:27.844Z,17.73
2022-10-03T12:04:03.173Z,17.85
2022-10-03T12:07:18.134Z,18.03
2022-10-03T12:09:57.039Z,18.41
2022-10-03T12:12:35.930Z,18.67
2022-10-03T12:15:18.102Z,18.65
2022-10-03T12:17:55.537Z,18.58
2022-10-03T12:20:28.530Z,18.48
2022-10-03T12:23:03.493Z,18.25
2022-10-03T12:25:34.778Z,18.06
2022-10-03T12:28:16.385Z,17.84
2022-10-03T12:30:50.427Z,17.61
2022-10-03T12:33:44.691Z,17.45
2022-10-03T12:36:16.138Z,17.31
2022-10-03T12:39:10.403Z,17.20
2022-10-03T12:42:06.065Z,17.13
2022-10-03T12:44:47.638Z,17.06
2022-10-03T12:47:51.040Z,17.01
2022-10-03T12:50:31.033Z,16.95
2022-10-03T12:53:25.176Z,16.91
2022-10-03T12:56:07.994Z,16.88
2022-10-03T12:58:49.095Z,16.85
2022-10-03T13:01:26.993Z,16.81
2022-10-03T13:03:58.236Z,16.83
2022-10-03T13:07:01.699Z,16.90
2022-10-03T13:09:42.786Z,16.95
2022-10-03T13:12:25.523Z,16.98
2022-10-03T13:15:41.496Z,16.97
2022-10-03T13:18:22.502Z,16.97
2022-10-03T13:20:59.746Z,17.01
2022-10-03T13:23:38.145Z,17.05
2022-10-03T13:26:17.913Z,17.09
2022-10-03T13:29:13.173Z,17.12
2022-10-03T13:31:56.047Z,17.14
2022-10-03T13:34:28.720Z,17.19
2022-10-03T13:37:04.922Z,17.24
2022-10-03T13:39:46.049Z,17.33
2022-10-03T13:42:19.258Z,17.38
2022-10-03T13:44:54.424Z,17.43
2022-10-03T13:47:39.726Z,17.42
2022-10-03T13:50:16.934Z,17.42
2022-10-03T13:52:47.555Z,17.44
2022-10-03T13:55:26.324Z,17.46
2022-10-03T13:58:11.478Z,17.49
2022-10-03T14:00:52.416Z,17.48
2022-10-03T14:03:28.634Z,17.56
2022-10-03T14:06:06.306Z,17.53
2022-10-03T14:09:00.071Z,17.53
2022-10-03T14:11:39.588Z,17.52
2022-10-03T14:14:34.321Z,17.48
2022-10-03T14:17:10.181Z,17.47
2022-10-03T14:19:52.289Z,17.49
2022-10-03T14:22:43.211Z,17.59
2022-10-03T14:25:22.337Z,17.75
2022-10-03T14:27:55.403Z,17.83
2022-10-03T14:30:25.255Z,17.83
2022-10-03T14:33:10.800Z,17.84
2022-10-03T14:35:44.057Z,17.77
2022-10-03T14:39:00.629Z,17.70
2022-10-03T14:41:39.997Z,17.71
2022-10-03T14:44:13.489Z,17.64
2022-10-03T14:46:47.368Z,17.61
2022-10-03T14:49:48.490Z,17.56
2022-10-03T14:52:21.709Z,17.52
2022-10-03T14:54:54.308Z,17.48
2022-10-03T14:57:39.650Z,17.47
2022-10-03T15:00:27.864Z,17.43
2022-10-03T15:02:55.916Z,17.40
2022-10-03T15:05:36.295Z,17.38
2022-10-03T15:08:14.416Z,17.41
2022-10-03T15:10:46.094Z,17.46
2022-10-03T15:13:19.073Z,17.44
2022-10-03T15:15:48.724Z,17.41
2022-10-03T15:18:19.521Z,17.43
2022-10-03T15:20:49.191Z,17.40
2022-10-03T15:23:22.069Z,17.36
2022-10-03T15:25:54.659Z,17.33
2022-10-03T15:28:26.211Z,17.30
2022-10-03T15:30:56.692Z,17.27
2022-10-03T15:33:32.215Z,17.20
2022-10-03T15:36:14.570Z,17.11
2022-10-03T15:38:46.604Z,17.07
2022-10-03T15:41:17.569Z,17.05
2022-10-03T15:43:52.306Z,17.02
2022-10-03T15:46:30.336Z,16.96
2022-10-03T15:49:02.369Z,16.89
2022-10-03T15:51:32.812Z,16.84
2022-10-03T15:54:02.609Z,16.82
2022-10-03T15:56:37.916Z,16.82
2022-10-03T15:59:09.506Z,16.78
2022-10-03T16:01:40.486Z,16.75
2022-10-03T16:04:17.006Z,16.70
2022-10-03T16:06:50.928Z,16.71
2022-10-03T16:09:27.389Z,16.67
2022-10-03T16:12:08.927Z,16.67
2022-10-03T16:14:42.698Z,16.65
2022-10-03T16:17:17.615Z,16.60
2022-10-03T16:19:54.161Z,16.57
2022-10-03T16:22:25.999Z,16.51
2022-10-03T16:25:07.394Z,16.49
2022-10-03T16:27:41.442Z,16.45
2022-10-03T16:30:29.090Z,16.45
2022-10-03T16:33:17.623Z,16.44
2022-10-03T16:35:48.964Z,16.41
2022-10-03T16:38:24.357Z,16.39
2022-10-03T16:40:56.500Z,16.35
2022-10-03T16:43:26.660Z,16.29
2022-10-03T16:45:56.534Z,16.23
2022-10-03T16:48:45.615Z,16.19
2022-10-03T16:51:20.999Z,16.14
2022-10-03T16:53:51.629Z,16.10
2022-10-03T16:56:24.239Z,16.06
2022-10-03T16:58:55.618Z,16.06
2022-10-03T17:01:32.977Z,16.00
2022-10-03T17:04:20.666Z,16.00
2022-10-03T17:06:50.241Z,15.98
2022-10-03T17:09:25.784Z,15.95
2022-10-03T17:11:56.449Z,15.88
2022-10-03T17:14:28.916Z,15.70
2022-10-03T17:17:02.822Z,15.67
2022-10-03T17:19:35.564Z,15.68
2022-10-03T17:22:14.155Z,15.66
2022-10-03T17:24:47.785Z,15.65
2022-10-03T17:27:22.652Z,15.66
2022-10-03T17:29:58.345Z,15.59
2022-10-03T17:32:31.534Z,15.52
2022-10-03T17:35:04.318Z,15.50
2022-10-03T17:38:44.485Z,15.49
2022-10-03T17:41:14.956Z,15.39
2022-10-03T17:43:49.227Z,15.31
2022-10-03T17:46:24.499Z,15.24
2022-10-03T17:48:56.253Z,15.21
2022-10-03T17:51:32.406Z,15.22
2022-10-03T17:54:04.191Z,15.18
2022-10-03T17:56:34.227Z,15.16
2022-10-03T17:59:05.971Z,15.17
2022-10-03T18:01:40.492Z,15.10
2022-10-03T18:04:17.202Z,15.14
2022-10-03T18:06:48.715Z,15.20
2022-10-03T18:09:26.307Z,15.10
2022-10-03T18:11:59.999Z,15.09
2022-10-03T18:14:37.525Z,15.07
2022-10-03T18:17:13.482Z,15.08
2022-10-03T18:19:55.815Z,15.07
2022-10-03T18:22:31.501Z,15.08
2022-10-03T18:25:28.178Z,15.00
2022-10-03T18:28:14.870Z,14.93
2022-10-03T18:30:48.061Z,14.95
2022-10-03T18:33:20.723Z,14.93
2022-10-03T18:35:50.452Z,14.86
2022-10-03T18:38:22.145Z,14.82
2022-10-03T18:40:53.430Z,14.81
2022-10-03T18:43:29.295Z,14.74
2022-10-03T18:46:15.378Z,14.69
2022-10-03T18:49:30.132Z,14.66
2022-10-03T18:51:57.945Z,14.66
2022-10-03T18:54:35.953Z,14.61
2022-10-03T18:57:10.417Z,14.62
2022-10-03T18:59:46.380Z,14.57
2022-10-03T19:02:21.386Z,14.48
2022-10-03T19:04:55.466Z,14.46
2022-10-03T19:07:25.577Z,14.39
2022-10-03T19:10:19.389Z,14.41
2022-10-03T19:12:49.997Z,14.37
2022-10-03T19:15:22.369Z,14.34
2022-10-03T19:18:04.071Z,14.40
2022-10-03T19:20:37.808Z,14.39
2022-10-03T19:23:10.623Z,14.39
2022-10-03T19:25:41.270Z,14.30
2022-10-03T19:28:18.091Z,14.26
2022-10-03T19:30:47.529Z,14.27
2022-10-03T19:33:21.757Z,14.30
2022-10-03T19:35:54.443Z,14.26
2022-10-03T19:38:27.499Z,14.29
2022-10-03T19:41:00.178Z,14.23
2022-10-03T19:43:37.100Z,14.18
2022-10-03T19:46:13.845Z,14.11
2022-10-03T19:48:49.094Z,14.02
2022-10-03T19:51:25.251Z,14.02
2022-10-03T19:53:54.865Z,13.99
2022-10-03T19:56:25.310Z,13.96
2022-10-03T19:59:02.433Z,13.79
2022-10-03T20:01:36.351Z,13.63
2022-10-03T20:04:04.012Z,13.59
2022-10-03T20:06:39.619Z,13.65
2022-10-03T20:09:17.933Z,13.65
2022-10-03T20:11:47.535Z,13.63
2022-10-03T20:14:17.425Z,13.65
2022-10-03T20:16:49.391Z,13.68
2022-10-03T20:19:23.458Z,13.65
2022-10-03T20:21:57.577Z,13.65
2022-10-03T20:24:32.723Z,13.66
2022-10-03T20:27:12.197Z,13.50
2022-10-03T20:29:46.970Z,13.30
2022-10-03T20:32:17.319Z,13.14
2022-10-03T20:34:52.294Z,13.07
2022-10-03T20:37:38.343Z,13.16
2022-10-03T20:40:20.887Z,13.27
2022-10-03T20:42:50.662Z,13.34
2022-10-03T20:45:23.184Z,13.29
2022-10-03T20:47:59.298Z,13.31
2022-10-03T20:50:31.606Z,13.32
2022-10-03T20:53:02.684Z,13.34
2022-10-03T20:55:35.683Z,13.36
2022-10-03T20:58:13.505Z,13.36
2022-10-03T21:00:49.295Z,13.40
2022-10-03T21:03:27.447Z,13.38
2022-10-03T21:05:58.540Z,13.36
2022-10-03T21:08:30.921Z,13.32
2022-10-03T21:11:02.063Z,13.28
2022-10-03T21:13:34.359Z,13.27
2022-10-03T21:16:04.038Z,13.10
2022-10-03T21:18:35.713Z,13.10
2022-10-03T21:21:08.730Z,13.16
2022-10-03T21:23:42.421Z,13.17
2022-10-03T21:26:11.747Z,13.22
2022-10-03T21:28:39.556Z,13.23
2022-10-03T21:31:38.781Z,13.18
2022-10-03T21:34:16.883Z,13.06
2022-10-03T21:36:52.747Z,13.01
2022-10-03T21:39:33.487Z,13.02
2022-10-03T21:42:11.735Z,13.03
2022-10-03T21:44:55.379Z,13.02
2022-10-03T21:47:34.548Z,12.95
2022-10-03T21:50:06.840Z,12.90
2022-10-03T21:52:49.453Z,12.88
2022-10-03T21:55:51.824Z,12.85
2022-10-03T21:58:36.637Z,12.86
2022-10-03T22:01:12.041Z,12.88
2022-10-03T22:03:46.379Z,12.86
2022-10-03T22:06:20.073Z,12.81
2022-10-03T22:08:48.971Z,12.79
2022-10-03T22:11:30.895Z,12.77
2022-10-03T22:14:10.192Z,12.67
2022-10-03T22:16:46.322Z,12.61
2022-10-03T22:19:21.409Z,12.57
2022-10-03T22:22:18.688Z,12.60
2022-10-03T22:24:56.564Z,12.66
2022-10-03T22:27:33.535Z,12.64
2022-10-03T22:30:06.206Z,12.59
2022-10-03T22:32:39.871Z,12.56
2022-10-03T22:35:19.975Z,12.63
2022-10-03T22:37:47.853Z,12.59
2022-10-03T22:40:15.694Z,12.46
2022-10-03T22:42:56.603Z,12.52
2022-10-03T22:45:28.113Z,12.55
2022-10-03T22:47:59.493Z,12.51
2022-10-03T22:50:32.335Z,12.43
2022-10-03T22:53:02.132Z,12.41
2022-10-03T22:55:31.469Z,12.37
2022-10-03T22:58:02.094Z,12.41
2022-10-03T23:00:35.640Z,12.39
2022-10-03T23:03:08.036Z,12.29
2022-10-03T23:05:57.540Z,12.34
2022-10-03T23:08:36.842Z,12.34
2022-10-03T23:11:10.579Z,12.33
2022-10-03T23:13:42.048Z,12.35
2022-10-03T23:16:23.442Z,12.35
2022-10-03T23:19:05.345Z,12.34
2022-10-03T23:21:34.264Z,12.29
2022-10-03T23:24:08.394Z,12.20
2022-10-03T23:27:23.569Z,12.27
2022-10-03T23:30:53.897Z,12.33
2022-10-03T23:33:53.439Z,12.24
2022-10-03T23:36:25.263Z,12.26
2022-10-03T23:39:01.507Z,12.26
2022-10-03T23:41:58.682Z,12.23
2022-10-03T23:44:49.333Z,12.15
2022-10-03T23:47:21.278Z,12.13
2022-10-03T23:49:51.290Z,12.08
2022-10-03T23:52:23.662Z,12.09
2022-10-03T23:54:54.337Z,12.06
2022-10-03T23:57:26.538Z,12.05
2022-10-03T23:59:54.139Z,12.06
